sensor_id;sensor_type;location;lat;lon;timestamp;temperature;humidity
71047;SHT31;58703;48.978;8.982;2023-10-08T00:01:44;14.83;72.80
71047;SHT31;58703;48.978;8.982;2023-10-08T00:04:09;14.73;73.87
71047;SHT31;58703;48.978;8.982;2023-10-08T00:06:36;14.73;73.85
71047;SHT31;58703;48.978;8.982;2023-10-08T00:09:03;14.73;73.51
71047;SHT31;58703;48.978;8.982;2023-10-08T00:11:35;14.67;74.05
71047;SHT31;58703;48.978;8.982;2023-10-08T00:14:08;14.91;72.38
71047;SHT31;58703;48.978;8.982;2023-10-08T00:16:42;15.00;72.00
71047;SHT31;58703;48.978;8.982;2023-10-08T00:19:08;15.18;70.91
71047;SHT31;58703;48.978;8.982;2023-10-08T00:21:36;15.27;70.86
71047;SHT31;58703;48.978;8.982;2023-10-08T00:24:04;15.25;70.91
71047;SHT31;58703;48.978;8.982;2023-10-08T00:26:33;15.27;70.98
71047;SHT31;58703;48.978;8.982;2023-10-08T00:29:03;15.42;70.42
71047;SHT31;58703;48.978;8.982;2023-10-08T00:31:40;15.46;70.27
71047;SHT31;58703;48.978;8.982;2023-10-08T00:34:07;15.55;69.84
71047;SHT31;58703;48.978;8.982;2023-10-08T00:36:40;15.45;71.72
71047;SHT31;58703;48.978;8.982;2023-10-08T00:39:07;15.76;69.50
71047;SHT31;58703;48.978;8.982;2023-10-08T00:41:44;15.95;68.48
71047;SHT31;58703;48.978;8.982;2023-10-08T00:44:30;16.44;66.85
71047;SHT31;58703;48.978;8.982;2023-10-08T00:46:58;16.29;67.14
71047;SHT31;58703;48.978;8.982;2023-10-08T00:49:33;16.26;66.84
71047;SHT31;58703;48.978;8.982;2023-10-08T00:52:02;16.31;66.91
71047;SHT31;58703;48.978;8.982;2023-10-08T00:54:37;16.19;67.27
71047;SHT31;58703;48.978;8.982;2023-10-08T00:57:27;16.29;66.49
71047;SHT31;58703;48.978;8.982;2023-10-08T00:59:55;16.43;65.63
71047;SHT31;58703;48.978;8.982;2023-10-08T01:02:28;16.23;66.64
71047;SHT31;58703;48.978;8.982;2023-10-08T01:05:08;16.00;67.56
71047;SHT31;58703;48.978;8.982;2023-10-08T01:07:36;15.73;68.58
71047;SHT31;58703;48.978;8.982;2023-10-08T01:10:02;15.07;71.83
71047;SHT31;58703;48.978;8.982;2023-10-08T01:12:36;15.11;70.55
71047;SHT31;58703;48.978;8.982;2023-10-08T01:15:14;15.34;69.28
71047;SHT31;58703;48.978;8.982;2023-10-08T01:17:50;14.83;73.36
71047;SHT31;58703;48.978;8.982;2023-10-08T01:20:44;14.33;75.73
71047;SHT31;58703;48.978;8.982;2023-10-08T01:23:13;14.04;76.48
71047;SHT31;58703;48.978;8.982;2023-10-08T01:25:44;13.85;76.79
71047;SHT31;58703;48.978;8.982;2023-10-08T01:28:18;13.71;77.71
71047;SHT31;58703;48.978;8.982;2023-10-08T01:30:55;13.46;78.72
71047;SHT31;58703;48.978;8.982;2023-10-08T01:33:23;13.50;77.32
71047;SHT31;58703;48.978;8.982;2023-10-08T01:35:54;13.62;76.44
71047;SHT31;58703;48.978;8.982;2023-10-08T01:38:21;13.85;75.06
71047;SHT31;58703;48.978;8.982;2023-10-08T01:40:53;15.44;70.04
71047;SHT31;58703;48.978;8.982;2023-10-08T01:43:19;15.24;69.93
71047;SHT31;58703;48.978;8.982;2023-10-08T01:45:46;15.30;70.06
71047;SHT31;58703;48.978;8.982;2023-10-08T01:48:17;15.27;69.94
71047;SHT31;58703;48.978;8.982;2023-10-08T01:50:57;15.21;70.59
71047;SHT31;58703;48.978;8.982;2023-10-08T01:53:28;14.97;71.20
71047;SHT31;58703;48.978;8.982;2023-10-08T01:55:53;14.60;72.63
71047;SHT31;58703;48.978;8.982;2023-10-08T01:58:21;14.57;72.27
71047;SHT31;58703;48.978;8.982;2023-10-08T02:00:48;14.46;73.05
71047;SHT31;58703;48.978;8.982;2023-10-08T02:03:16;14.37;73.41
71047;SHT31;58703;48.978;8.982;2023-10-08T02:05:46;14.29;73.68
71047;SHT31;58703;48.978;8.982;2023-10-08T02:08:13;14.25;73.71
71047;SHT31;58703;48.978;8.982;2023-10-08T02:10:40;14.29;73.94
71047;SHT31;58703;48.978;8.982;2023-10-08T02:13:07;14.19;73.82
71047;SHT31;58703;48.978;8.982;2023-10-08T02:15:35;14.29;73.88
71047;SHT31;58703;48.978;8.982;2023-10-08T02:18:02;14.32;73.66
71047;SHT31;58703;48.978;8.982;2023-10-08T02:20:29;14.42;73.98
71047;SHT31;58703;48.978;8.982;2023-10-08T02:22:54;14.40;73.53
71047;SHT31;58703;48.978;8.982;2023-10-08T02:25:20;14.57;73.24
71047;SHT31;58703;48.978;8.982;2023-10-08T02:27:46;14.57;73.18
71047;SHT31;58703;48.978;8.982;2023-10-08T02:30:12;14.50;73.35
71047;SHT31;58703;48.978;8.982;2023-10-08T02:32:38;14.87;72.70
71047;SHT31;58703;48.978;8.982;2023-10-08T02:35:08;14.91;72.28
71047;SHT31;58703;48.978;8.982;2023-10-08T02:37:40;15.12;71.85
71047;SHT31;58703;48.978;8.982;2023-10-08T02:40:10;15.14;72.16
71047;SHT31;58703;48.978;8.982;2023-10-08T02:42:54;15.17;72.38
71047;SHT31;58703;48.978;8.982;2023-10-08T02:45:27;15.08;72.66
71047;SHT31;58703;48.978;8.982;2023-10-08T02:47:54;15.15;72.59
71047;SHT31;58703;48.978;8.982;2023-10-08T02:50:22;15.14;72.83
71047;SHT31;58703;48.978;8.982;2023-10-08T02:52:50;15.23;72.50
71047;SHT31;58703;48.978;8.982;2023-10-08T02:55:18;15.08;73.06
71047;SHT31;58703;48.978;8.982;2023-10-08T02:58:00;15.56;72.27
71047;SHT31;58703;48.978;8.982;2023-10-08T03:00:30;15.88;70.91
71047;SHT31;58703;48.978;8.982;2023-10-08T03:03:00;15.58;71.91
71047;SHT31;58703;48.978;8.982;2023-10-08T03:05:27;15.30;72.87
71047;SHT31;58703;48.978;8.982;2023-10-08T03:07:57;15.10;73.52
71047;SHT31;58703;48.978;8.982;2023-10-08T03:10:24;15.18;73.51
71047;SHT31;58703;48.978;8.982;2023-10-08T03:12:57;15.10;73.68
71047;SHT31;58703;48.978;8.982;2023-10-08T03:15:29;16.05;71.15
71047;SHT31;58703;48.978;8.982;2023-10-08T03:17:59;16.06;70.86
71047;SHT31;58703;48.978;8.982;2023-10-08T03:20:34;15.88;70.95
71047;SHT31;58703;48.978;8.982;2023-10-08T03:23:06;15.34;72.88
71047;SHT31;58703;48.978;8.982;2023-10-08T03:25:39;15.14;73.57
71047;SHT31;58703;48.978;8.982;2023-10-08T03:28:08;14.81;74.48
71047;SHT31;58703;48.978;8.982;2023-10-08T03:30:34;14.59;75.27
71047;SHT31;58703;48.978;8.982;2023-10-08T03:33:13;14.21;76.57
71047;SHT31;58703;48.978;8.982;2023-10-08T03:35:48;13.88;77.24
71047;SHT31;58703;48.978;8.982;2023-10-08T03:38:14;13.72;77.84
71047;SHT31;58703;48.978;8.982;2023-10-08T03:41:06;13.47;78.56
71047;SHT31;58703;48.978;8.982;2023-10-08T03:43:34;13.16;79.61
71047;SHT31;58703;48.978;8.982;2023-10-08T03:46:00;12.96;80.31
71047;SHT31;58703;48.978;8.982;2023-10-08T03:48:34;12.82;80.93
71047;SHT31;58703;48.978;8.982;2023-10-08T03:51:03;12.70;81.39
71047;SHT31;58703;48.978;8.982;2023-10-08T03:53:38;12.60;81.87
71047;SHT31;58703;48.978;8.982;2023-10-08T03:56:23;12.52;81.91
71047;SHT31;58703;48.978;8.982;2023-10-08T03:58:50;12.50;81.78
71047;SHT31;58703;48.978;8.982;2023-10-08T04:01:20;12.48;81.78
71047;SHT31;58703;48.978;8.982;2023-10-08T04:03:46;12.38;81.94
71047;SHT31;58703;48.978;8.982;2023-10-08T04:06:26;12.13;82.84
71047;SHT31;58703;48.978;8.982;2023-10-08T04:09:01;11.78;84.17
71047;SHT31;58703;48.978;8.982;2023-10-08T04:11:36;11.60;85.03
71047;SHT31;58703;48.978;8.982;2023-10-08T04:14:27;11.59;85.24
71047;SHT31;58703;48.978;8.982;2023-10-08T04:16:53;11.50;85.42
71047;SHT31;58703;48.978;8.982;2023-10-08T04:19:22;11.39;85.83
71047;SHT31;58703;48.978;8.982;2023-10-08T04:21:55;11.30;86.21
71047;SHT31;58703;48.978;8.982;2023-10-08T04:24:23;11.27;86.61
71047;SHT31;58703;48.978;8.982;2023-10-08T04:27:04;11.23;86.82
71047;SHT31;58703;48.978;8.982;2023-10-08T04:29:33;11.26;86.60
71047;SHT31;58703;48.978;8.982;2023-10-08T04:32:03;11.11;87.26
71047;SHT31;58703;48.978;8.982;2023-10-08T04:34:34;11.19;86.86
71047;SHT31;58703;48.978;8.982;2023-10-08T04:37:01;11.15;86.91
71047;SHT31;58703;48.978;8.982;2023-10-08T04:39:28;11.06;87.18
71047;SHT31;58703;48.978;8.982;2023-10-08T04:42:02;10.98;87.38
71047;SHT31;58703;48.978;8.982;2023-10-08T04:44:38;10.86;87.76
71047;SHT31;58703;48.978;8.982;2023-10-08T04:47:07;10.79;88.27
71047;SHT31;58703;48.978;8.982;2023-10-08T04:49:34;10.73;88.25
71047;SHT31;58703;48.978;8.982;2023-10-08T04:52:07;10.67;88.37
71047;SHT31;58703;48.978;8.982;2023-10-08T04:54:44;10.52;89.76
71047;SHT31;58703;48.978;8.982;2023-10-08T04:57:21;10.47;89.81
71047;SHT31;58703;48.978;8.982;2023-10-08T04:59:55;10.45;89.57
71047;SHT31;58703;48.978;8.982;2023-10-08T05:02:22;10.38;90.18
71047;SHT31;58703;48.978;8.982;2023-10-08T05:05:14;10.33;90.28
71047;SHT31;58703;48.978;8.982;2023-10-08T05:07:42;10.20;90.72
71047;SHT31;58703;48.978;8.982;2023-10-08T05:10:15;10.10;91.15
71047;SHT31;58703;48.978;8.982;2023-10-08T05:12:50;9.97;91.47
71047;SHT31;58703;48.978;8.982;2023-10-08T05:15:31;10.01;91.89
71047;SHT31;58703;48.978;8.982;2023-10-08T05:18:08;10.11;91.62
71047;SHT31;58703;48.978;8.982;2023-10-08T05:20:44;10.07;91.47
71047;SHT31;58703;48.978;8.982;2023-10-08T05:23:18;9.91;91.63
71047;SHT31;58703;48.978;8.982;2023-10-08T05:25:51;9.75;92.69
71047;SHT31;58703;48.978;8.982;2023-10-08T05:28:36;9.72;93.00
71047;SHT31;58703;48.978;8.982;2023-10-08T05:31:22;9.56;93.51
71047;SHT31;58703;48.978;8.982;2023-10-08T05:34:09;9.50;94.04
71047;SHT31;58703;48.978;8.982;2023-10-08T05:36:46;9.75;93.37
71047;SHT31;58703;48.978;8.982;2023-10-08T05:39:30;9.82;92.95
71047;SHT31;58703;48.978;8.982;2023-10-08T05:42:09;9.77;92.74
71047;SHT31;58703;48.978;8.982;2023-10-08T05:44:45;9.72;93.04
71047;SHT31;58703;48.978;8.982;2023-10-08T05:47:32;9.72;92.78
71047;SHT31;58703;48.978;8.982;2023-10-08T05:50:02;9.67;92.89
71047;SHT31;58703;48.978;8.982;2023-10-08T05:52:46;9.56;93.39
71047;SHT31;58703;48.978;8.982;2023-10-08T05:55:31;9.53;94.04
71047;SHT31;58703;48.978;8.982;2023-10-08T05:58:06;9.48;94.28
71047;SHT31;58703;48.978;8.982;2023-10-08T06:00:47;9.43;94.09
71047;SHT31;58703;48.978;8.982;2023-10-08T06:03:19;9.48;93.95
71047;SHT31;58703;48.978;8.982;2023-10-08T06:06:05;9.50;93.73
71047;SHT31;58703;48.978;8.982;2023-10-08T06:08:48;9.69;93.36
71047;SHT31;58703;48.978;8.982;2023-10-08T06:11:19;9.67;92.85
71047;SHT31;58703;48.978;8.982;2023-10-08T06:14:06;9.75;92.57
71047;SHT31;58703;48.978;8.982;2023-10-08T06:16:43;9.72;92.95
71047;SHT31;58703;48.978;8.982;2023-10-08T06:19:10;9.76;93.00
71047;SHT31;58703;48.978;8.982;2023-10-08T06:21:38;9.75;93.09
71047;SHT31;58703;48.978;8.982;2023-10-08T06:24:06;9.93;92.37
71047;SHT31;58703;48.978;8.982;2023-10-08T06:26:39;9.93;92.35
71047;SHT31;58703;48.978;8.982;2023-10-08T06:29:09;10.04;92.43
71047;SHT31;58703;48.978;8.982;2023-10-08T06:31:45;10.22;91.54
71047;SHT31;58703;48.978;8.982;2023-10-08T06:34:18;10.48;90.48
71047;SHT31;58703;48.978;8.982;2023-10-08T06:36:50;10.67;89.99
71047;SHT31;58703;48.978;8.982;2023-10-08T06:39:34;10.95;89.04
71047;SHT31;58703;48.978;8.982;2023-10-08T06:42:16;11.09;88.69
71047;SHT31;58703;48.978;8.982;2023-10-08T06:44:43;11.18;88.81
71047;SHT31;58703;48.978;8.982;2023-10-08T06:47:13;11.24;88.58
71047;SHT31;58703;48.978;8.982;2023-10-08T06:49:42;11.33;88.95
71047;SHT31;58703;48.978;8.982;2023-10-08T06:52:08;11.63;87.45
71047;SHT31;58703;48.978;8.982;2023-10-08T06:54:40;11.59;87.09
71047;SHT31;58703;48.978;8.982;2023-10-08T06:57:06;11.71;86.32
71047;SHT31;58703;48.978;8.982;2023-10-08T06:59:39;11.69;86.80
71047;SHT31;58703;48.978;8.982;2023-10-08T07:02:08;11.87;86.17
71047;SHT31;58703;48.978;8.982;2023-10-08T07:04:35;12.34;84.90
71047;SHT31;58703;48.978;8.982;2023-10-08T07:07:01;12.77;83.21
71047;SHT31;58703;48.978;8.982;2023-10-08T07:09:28;13.17;81.98
71047;SHT31;58703;48.978;8.982;2023-10-08T07:11:57;13.33;81.27
71047;SHT31;58703;48.978;8.982;2023-10-08T07:14:27;13.58;80.41
71047;SHT31;58703;48.978;8.982;2023-10-08T07:16:57;13.62;80.13
71047;SHT31;58703;48.978;8.982;2023-10-08T07:19:28;13.60;79.52
71047;SHT31;58703;48.978;8.982;2023-10-08T07:22:07;13.65;79.06
71047;SHT31;58703;48.978;8.982;2023-10-08T07:24:43;13.60;79.81
71047;SHT31;58703;48.978;8.982;2023-10-08T07:27:16;13.53;80.06
71047;SHT31;58703;48.978;8.982;2023-10-08T07:29:47;13.57;80.15
71047;SHT31;58703;48.978;8.982;2023-10-08T07:32:14;13.62;80.37
71047;SHT31;58703;48.978;8.982;2023-10-08T07:34:44;13.62;80.96
71047;SHT31;58703;48.978;8.982;2023-10-08T07:37:10;13.77;79.52
71047;SHT31;58703;48.978;8.982;2023-10-08T07:39:37;13.81;79.39
71047;SHT31;58703;48.978;8.982;2023-10-08T07:42:12;13.64;80.34
71047;SHT31;58703;48.978;8.982;2023-10-08T07:44:38;13.61;80.57
71047;SHT31;58703;48.978;8.982;2023-10-08T07:47:07;13.89;80.47
71047;SHT31;58703;48.978;8.982;2023-10-08T07:49:43;14.22;79.58
71047;SHT31;58703;48.978;8.982;2023-10-08T07:52:09;14.13;79.87
71047;SHT31;58703;48.978;8.982;2023-10-08T07:54:34;14.15;80.17
71047;SHT31;58703;48.978;8.982;2023-10-08T07:57:01;14.01;80.93
71047;SHT31;58703;48.978;8.982;2023-10-08T07:59:46;14.52;79.42
71047;SHT31;58703;48.978;8.982;2023-10-08T08:02:14;14.77;78.46
71047;SHT31;58703;48.978;8.982;2023-10-08T08:04:44;14.34;80.10
71047;SHT31;58703;48.978;8.982;2023-10-08T08:07:12;14.49;80.02
71047;SHT31;58703;48.978;8.982;2023-10-08T08:09:45;14.63;80.23
71047;SHT31;58703;48.978;8.982;2023-10-08T08:12:18;15.08;79.14
71047;SHT31;58703;48.978;8.982;2023-10-08T08:14:45;15.38;78.21
71047;SHT31;58703;48.978;8.982;2023-10-08T08:17:10;15.73;77.18
71047;SHT31;58703;48.978;8.982;2023-10-08T08:19:42;16.13;76.14
71047;SHT31;58703;48.978;8.982;2023-10-08T08:22:13;16.43;75.75
71047;SHT31;58703;48.978;8.982;2023-10-08T08:24:53;17.18;74.39
71047;SHT31;58703;48.978;8.982;2023-10-08T08:27:21;17.69;71.90
71047;SHT31;58703;48.978;8.982;2023-10-08T08:29:51;18.30;70.49
71047;SHT31;58703;48.978;8.982;2023-10-08T08:32:21;18.64;69.88
71047;SHT31;58703;48.978;8.982;2023-10-08T08:34:47;18.76;68.52
71047;SHT31;58703;48.978;8.982;2023-10-08T08:37:19;19.17;68.00
71047;SHT31;58703;48.978;8.982;2023-10-08T08:39:48;19.82;66.68
71047;SHT31;58703;48.978;8.982;2023-10-08T08:42:15;19.91;66.65
71047;SHT31;58703;48.978;8.982;2023-10-08T08:44:44;20.04;66.72
71047;SHT31;58703;48.978;8.982;2023-10-08T08:47:18;20.45;64.55
71047;SHT31;58703;48.978;8.982;2023-10-08T08:49:45;20.79;62.55
71047;SHT31;58703;48.978;8.982;2023-10-08T08:52:11;20.66;63.27
71047;SHT31;58703;48.978;8.982;2023-10-08T08:54:38;20.89;62.60
71047;SHT31;58703;48.978;8.982;2023-10-08T08:57:04;21.17;61.58
71047;SHT31;58703;48.978;8.982;2023-10-08T08:59:33;21.40;61.29
71047;SHT31;58703;48.978;8.982;2023-10-08T09:02:02;21.47;60.97
71047;SHT31;58703;48.978;8.982;2023-10-08T09:04:30;21.47;60.16
71047;SHT31;58703;48.978;8.982;2023-10-08T09:06:56;21.58;61.25
71047;SHT31;58703;48.978;8.982;2023-10-08T09:09:31;21.71;60.64
71047;SHT31;58703;48.978;8.982;2023-10-08T09:11:56;21.58;60.52
71047;SHT31;58703;48.978;8.982;2023-10-08T09:14:24;21.51;61.05
71047;SHT31;58703;48.978;8.982;2023-10-08T09:16:53;21.14;60.58
71047;SHT31;58703;48.978;8.982;2023-10-08T09:19:21;21.44;60.79
71047;SHT31;58703;48.978;8.982;2023-10-08T09:22:04;21.86;59.77
71047;SHT31;58703;48.978;8.982;2023-10-08T09:24:34;22.01;60.03
71047;SHT31;58703;48.978;8.982;2023-10-08T09:27:05;22.06;59.52
71047;SHT31;58703;48.978;8.982;2023-10-08T09:29:34;22.10;59.60
71047;SHT31;58703;48.978;8.982;2023-10-08T09:32:05;22.25;59.39
71047;SHT31;58703;48.978;8.982;2023-10-08T09:34:32;22.50;59.98
71047;SHT31;58703;48.978;8.982;2023-10-08T09:36:59;22.09;59.87
71047;SHT31;58703;48.978;8.982;2023-10-08T09:39:29;22.25;59.69
71047;SHT31;58703;48.978;8.982;2023-10-08T09:42:00;22.22;58.72
71047;SHT31;58703;48.978;8.982;2023-10-08T09:44:28;22.02;59.42
71047;SHT31;58703;48.978;8.982;2023-10-08T09:47:06;22.12;59.57
71047;SHT31;58703;48.978;8.982;2023-10-08T09:49:56;21.78;60.04
71047;SHT31;58703;48.978;8.982;2023-10-08T09:52:33;21.96;59.61
71047;SHT31;58703;48.978;8.982;2023-10-08T09:55:00;22.22;58.88
71047;SHT31;58703;48.978;8.982;2023-10-08T09:57:28;21.98;60.43
71047;SHT31;58703;48.978;8.982;2023-10-08T09:59:53;22.08;59.32
71047;SHT31;58703;48.978;8.982;2023-10-08T10:02:21;21.86;60.08
71047;SHT31;58703;48.978;8.982;2023-10-08T10:04:50;21.58;59.15
71047;SHT31;58703;48.978;8.982;2023-10-08T10:07:19;21.58;59.57
71047;SHT31;58703;48.978;8.982;2023-10-08T10:09:50;21.41;59.62
71047;SHT31;58703;48.978;8.982;2023-10-08T10:12:26;21.24;60.35
71047;SHT31;58703;48.978;8.982;2023-10-08T10:14:53;21.11;60.58
71047;SHT31;58703;48.978;8.982;2023-10-08T10:19:59;20.92;60.71
71047;SHT31;58703;48.978;8.982;2023-10-08T10:22:35;20.96;60.98
71047;SHT31;58703;48.978;8.982;2023-10-08T10:25:02;21.15;60.94
71047;SHT31;58703;48.978;8.982;2023-10-08T10:30:16;22.26;56.34
71047;SHT31;58703;48.978;8.982;2023-10-08T10:32:44;22.13;57.38
71047;SHT31;58703;48.978;8.982;2023-10-08T10:35:14;22.28;58.12
71047;SHT31;58703;48.978;8.982;2023-10-08T10:37:43;22.42;57.67
71047;SHT31;58703;48.978;8.982;2023-10-08T10:40:24;22.67;57.02
71047;SHT31;58703;48.978;8.982;2023-10-08T10:43:08;22.08;57.55
71047;SHT31;58703;48.978;8.982;2023-10-08T10:45:41;22.19;56.81
71047;SHT31;58703;48.978;8.982;2023-10-08T10:48:12;22.59;56.81
71047;SHT31;58703;48.978;8.982;2023-10-08T10:50:47;22.93;56.44
71047;SHT31;58703;48.978;8.982;2023-10-08T10:53:38;22.94;56.80
71047;SHT31;58703;48.978;8.982;2023-10-08T10:56:17;23.10;56.08
71047;SHT31;58703;48.978;8.982;2023-10-08T10:58:47;23.42;55.48
71047;SHT31;58703;48.978;8.982;2023-10-08T11:01:23;23.38;54.44
71047;SHT31;58703;48.978;8.982;2023-10-08T11:03:52;23.35;54.48
71047;SHT31;58703;48.978;8.982;2023-10-08T11:06:19;23.42;55.04
71047;SHT31;58703;48.978;8.982;2023-10-08T11:08:52;23.95;54.65
71047;SHT31;58703;48.978;8.982;2023-10-08T11:11:19;24.23;53.78
71047;SHT31;58703;48.978;8.982;2023-10-08T11:13:58;24.50;53.14
71047;SHT31;58703;48.978;8.982;2023-10-08T11:16:26;24.05;53.32
71047;SHT31;58703;48.978;8.982;2023-10-08T11:18:53;24.85;53.07
71047;SHT31;58703;48.978;8.982;2023-10-08T11:21:24;25.79;51.49
71047;SHT31;58703;48.978;8.982;2023-10-08T11:23:52;25.87;50.97
71047;SHT31;58703;48.978;8.982;2023-10-08T11:26:19;25.24;50.27
71047;SHT31;58703;48.978;8.982;2023-10-08T11:28:45;25.45;50.11
71047;SHT31;58703;48.978;8.982;2023-10-08T11:31:31;25.08;49.50
71047;SHT31;58703;48.978;8.982;2023-10-08T11:34:01;24.98;49.56
71047;SHT31;58703;48.978;8.982;2023-10-08T11:36:28;25.65;49.29
71047;SHT31;58703;48.978;8.982;2023-10-08T11:38:59;25.75;48.10
71047;SHT31;58703;48.978;8.982;2023-10-08T11:41:34;25.14;48.55
71047;SHT31;58703;48.978;8.982;2023-10-08T11:44:18;25.47;48.43
71047;SHT31;58703;48.978;8.982;2023-10-08T11:46:49;25.66;48.32
71047;SHT31;58703;48.978;8.982;2023-10-08T11:49:18;25.63;48.04
71047;SHT31;58703;48.978;8.982;2023-10-08T11:51:45;25.53;47.86
71047;SHT31;58703;48.978;8.982;2023-10-08T11:54:11;25.86;48.30
71047;SHT31;58703;48.978;8.982;2023-10-08T11:56:38;26.17;47.74
71047;SHT31;58703;48.978;8.982;2023-10-08T11:59:05;25.66;48.37
71047;SHT31;58703;48.978;8.982;2023-10-08T12:01:38;25.62;48.17
71047;SHT31;58703;48.978;8.982;2023-10-08T12:04:08;25.76;47.60
71047;SHT31;58703;48.978;8.982;2023-10-08T12:06:39;25.50;47.59
71047;SHT31;58703;48.978;8.982;2023-10-08T12:09:09;25.07;48.69
71047;SHT31;58703;48.978;8.982;2023-10-08T12:11:38;25.67;49.05
71047;SHT31;58703;48.978;8.982;2023-10-08T12:14:06;25.89;47.57
71047;SHT31;58703;48.978;8.982;2023-10-08T12:16:32;25.87;47.23
71047;SHT31;58703;48.978;8.982;2023-10-08T12:19:02;25.72;47.69
71047;SHT31;58703;48.978;8.982;2023-10-08T12:21:32;26.36;47.54
71047;SHT31;58703;48.978;8.982;2023-10-08T12:23:58;26.10;46.51
71047;SHT31;58703;48.978;8.982;2023-10-08T12:26:24;25.76;47.74
71047;SHT31;58703;48.978;8.982;2023-10-08T12:28:51;25.76;47.57
71047;SHT31;58703;48.978;8.982;2023-10-08T12:31:20;25.98;47.46
71047;SHT31;58703;48.978;8.982;2023-10-08T12:33:48;26.10;46.86
71047;SHT31;58703;48.978;8.982;2023-10-08T12:36:14;26.04;47.00
71047;SHT31;58703;48.978;8.982;2023-10-08T12:38:43;25.59;47.09
71047;SHT31;58703;48.978;8.982;2023-10-08T12:41:10;25.65;46.74
71047;SHT31;58703;48.978;8.982;2023-10-08T12:43:43;26.18;46.18
71047;SHT31;58703;48.978;8.982;2023-10-08T12:46:12;25.83;46.09
71047;SHT31;58703;48.978;8.982;2023-10-08T12:48:45;25.83;45.84
71047;SHT31;58703;48.978;8.982;2023-10-08T12:51:14;25.65;46.06
71047;SHT31;58703;48.978;8.982;2023-10-08T12:53:40;25.26;46.19
71047;SHT31;58703;48.978;8.982;2023-10-08T12:56:07;25.34;46.46
71047;SHT31;58703;48.978;8.982;2023-10-08T12:58:42;25.63;46.31
71047;SHT31;58703;48.978;8.982;2023-10-08T13:01:17;26.04;45.72
71047;SHT31;58703;48.978;8.982;2023-10-08T13:03:44;25.77;45.88
71047;SHT31;58703;48.978;8.982;2023-10-08T13:06:18;26.14;45.00
71047;SHT31;58703;48.978;8.982;2023-10-08T13:08:59;25.75;45.80
71047;SHT31;58703;48.978;8.982;2023-10-08T13:11:26;26.14;45.09
71047;SHT31;58703;48.978;8.982;2023-10-08T13:13:56;26.07;44.99
71047;SHT31;58703;48.978;8.982;2023-10-08T13:16:25;26.51;44.69
71047;SHT31;58703;48.978;8.982;2023-10-08T13:18:52;26.36;44.42
71047;SHT31;58703;48.978;8.982;2023-10-08T13:21:22;26.33;44.12
71047;SHT31;58703;48.978;8.982;2023-10-08T13:23:51;26.67;43.52
71047;SHT31;58703;48.978;8.982;2023-10-08T13:26:17;26.96;43.04
71047;SHT31;58703;48.978;8.982;2023-10-08T13:28:43;26.75;43.81
71047;SHT31;58703;48.978;8.982;2023-10-08T13:31:10;27.26;43.65
71047;SHT31;58703;48.978;8.982;2023-10-08T13:33:40;27.60;43.71
71047;SHT31;58703;48.978;8.982;2023-10-08T13:36:11;27.57;44.18
71047;SHT31;58703;48.978;8.982;2023-10-08T13:38:41;26.77;44.82
71047;SHT31;58703;48.978;8.982;2023-10-08T13:41:08;26.92;44.83
71047;SHT31;58703;48.978;8.982;2023-10-08T13:43:50;26.64;45.44
71047;SHT31;58703;48.978;8.982;2023-10-08T13:46:26;26.84;45.86
71047;SHT31;58703;48.978;8.982;2023-10-08T13:48:53;26.94;45.07
71047;SHT31;58703;48.978;8.982;2023-10-08T13:51:20;27.08;45.59
71047;SHT31;58703;48.978;8.982;2023-10-08T13:53:49;27.52;44.86
71047;SHT31;58703;48.978;8.982;2023-10-08T13:56:18;27.06;44.47
71047;SHT31;58703;48.978;8.982;2023-10-08T13:58:46;27.29;45.36
71047;SHT31;58703;48.978;8.982;2023-10-08T14:01:15;26.64;45.44
71047;SHT31;58703;48.978;8.982;2023-10-08T14:03:51;26.45;46.34
71047;SHT31;58703;48.978;8.982;2023-10-08T14:06:20;26.72;45.53
71047;SHT31;58703;48.978;8.982;2023-10-08T14:08:48;27.22;45.42
71047;SHT31;58703;48.978;8.982;2023-10-08T14:11:18;27.09;45.59
71047;SHT31;58703;48.978;8.982;2023-10-08T14:13:44;27.16;45.83
71047;SHT31;58703;48.978;8.982;2023-10-08T14:16:12;27.87;44.53
71047;SHT31;58703;48.978;8.982;2023-10-08T14:18:39;27.96;44.77
71047;SHT31;58703;48.978;8.982;2023-10-08T14:21:09;28.15;44.62
71047;SHT31;58703;48.978;8.982;2023-10-08T14:23:38;28.45;44.62
71047;SHT31;58703;48.978;8.982;2023-10-08T14:26:09;28.29;44.78
71047;SHT31;58703;48.978;8.982;2023-10-08T14:28:36;28.34;45.25
71047;SHT31;58703;48.978;8.982;2023-10-08T14:31:28;28.37;44.30
71047;SHT31;58703;48.978;8.982;2023-10-08T14:33:57;28.88;43.84
71047;SHT31;58703;48.978;8.982;2023-10-08T14:36:45;28.62;44.10
71047;SHT31;58703;48.978;8.982;2023-10-08T14:39:30;28.14;45.47
71047;SHT31;58703;48.978;8.982;2023-10-08T14:42:16;28.48;45.03
71047;SHT31;58703;48.978;8.982;2023-10-08T14:45:00;27.59;45.81
71047;SHT31;58703;48.978;8.982;2023-10-08T14:47:26;28.58;44.68
71047;SHT31;58703;48.978;8.982;2023-10-08T14:49:52;27.80;46.53
71047;SHT31;58703;48.978;8.982;2023-10-08T14:52:18;27.74;45.97
71047;SHT31;58703;48.978;8.982;2023-10-08T14:54:44;27.66;46.64
71047;SHT31;58703;48.978;8.982;2023-10-08T14:57:11;28.00;46.55
71047;SHT31;58703;48.978;8.982;2023-10-08T14:59:42;27.74;46.22
71047;SHT31;58703;48.978;8.982;2023-10-08T15:02:08;28.37;45.94
71047;SHT31;58703;48.978;8.982;2023-10-08T15:04:37;28.48;45.21
71047;SHT31;58703;48.978;8.982;2023-10-08T15:07:07;27.19;47.99
71047;SHT31;58703;48.978;8.982;2023-10-08T15:09:36;26.20;49.85
71047;SHT31;58703;48.978;8.982;2023-10-08T15:12:03;25.22;51.47
71047;SHT31;58703;48.978;8.982;2023-10-08T15:14:29;24.96;51.39
71047;SHT31;58703;48.978;8.982;2023-10-08T15:16:57;24.47;53.36
71047;SHT31;58703;48.978;8.982;2023-10-08T15:19:22;24.20;53.39
71047;SHT31;58703;48.978;8.982;2023-10-08T15:21:49;24.32;53.37
71047;SHT31;58703;48.978;8.982;2023-10-08T15:24:21;24.51;52.81
71047;SHT31;58703;48.978;8.982;2023-10-08T15:26:48;24.71;52.92
71047;SHT31;58703;48.978;8.982;2023-10-08T15:29:15;25.31;51.78
71047;SHT31;58703;48.978;8.982;2023-10-08T15:31:40;25.53;50.85
71047;SHT31;58703;48.978;8.982;2023-10-08T15:34:07;25.52;50.32
71047;SHT31;58703;48.978;8.982;2023-10-08T15:36:33;25.73;50.59
71047;SHT31;58703;48.978;8.982;2023-10-08T15:38:58;25.96;50.36
71047;SHT31;58703;48.978;8.982;2023-10-08T15:41:24;26.51;49.38
71047;SHT31;58703;48.978;8.982;2023-10-08T15:43:51;26.78;48.44
71047;SHT31;58703;48.978;8.982;2023-10-08T15:46:20;26.48;50.06
71047;SHT31;58703;48.978;8.982;2023-10-08T15:48:45;26.27;50.28
71047;SHT31;58703;48.978;8.982;2023-10-08T15:51:12;25.98;51.11
71047;SHT31;58703;48.978;8.982;2023-10-08T15:53:38;25.50;51.78
71047;SHT31;58703;48.978;8.982;2023-10-08T15:56:05;25.31;52.61
71047;SHT31;58703;48.978;8.982;2023-10-08T15:58:32;25.05;53.11
71047;SHT31;58703;48.978;8.982;2023-10-08T16:00:57;24.87;53.36
71047;SHT31;58703;48.978;8.982;2023-10-08T16:03:23;25.18;52.74